createdAt,value
2023-01-03T00:02:32.435Z,10.98
2023-01-03T00:07:36.328Z,9.23
2023-01-03T00:12:43.193Z,7.55
2023-01-03T00:17:47.877Z,9.60
2023-01-03T00:22:51.590Z,7.28
2023-01-03T00:27:56.993Z,6.55
2023-01-03T00:33:00.689Z,6.85
2023-01-03T00:38:04.325Z,10.27
2023-01-03T00:43:26.991Z,7.10
2023-01-03T00:48:31.307Z,10.07
2023-01-03T00:53:35.596Z,7.22
2023-01-03T00:58:40.826Z,9.98
2023-01-03T01:03:48.417Z,6.10
2023-01-03T01:08:55.924Z,7.15
2023-01-03T01:14:02.204Z,6.60
2023-01-03T01:19:06.126Z,7.05
2023-01-03T01:24:14.300Z,8.57
2023-01-03T01:29:23.330Z,6.38
2023-01-03T01:34:27.036Z,5.88
2023-01-03T01:39:31.736Z,8.10
2023-01-03T01:44:52.111Z,6.35
2023-01-03T01:50:03.090Z,7.80
2023-01-03T01:55:13.371Z,6.20
2023-01-03T02:00:18.769Z,7.00
2023-01-03T02:05:24.413Z,9.18
2023-01-03T02:11:02.157Z,6.72
2023-01-03T02:16:30.608Z,5.55
2023-01-03T02:22:22.280Z,6.55
2023-01-03T03:07:26.345Z,5.28
2023-01-03T03:12:51.260Z,5.53
2023-01-03T03:18:05.095Z,6.40
2023-01-03T03:23:32.555Z,5.78
2023-01-03T03:28:43.506Z,5.10
2023-01-03T03:33:53.478Z,5.93
2023-01-03T03:38:58.437Z,4.40
2023-01-03T03:44:32.574Z,6.10
2023-01-03T03:49:39.645Z,5.60
2023-01-03T03:54:58.175Z,5.37
2023-01-03T04:00:09.561Z,4.85
2023-01-03T04:05:22.069Z,5.13
2023-01-03T04:10:30.177Z,4.25
2023-01-03T04:15:37.759Z,5.15
2023-01-03T04:20:41.407Z,6.45
2023-01-03T04:25:46.399Z,4.72
2023-01-03T04:30:50.103Z,4.22
2023-01-03T04:35:53.760Z,4.13
2023-01-03T04:41:06.586Z,5.15
2023-01-03T04:46:10.297Z,4.10
2023-01-03T04:51:14.256Z,5.78
2023-01-03T04:56:19.337Z,4.38
2023-01-03T05:01:23.932Z,5.03
2023-01-03T05:06:29.072Z,5.90
2023-01-03T05:11:34.067Z,5.70
2023-01-03T05:16:37.816Z,7.97
2023-01-03T05:21:59.088Z,5.00
2023-01-03T05:27:06.006Z,4.15
2023-01-03T05:32:09.690Z,4.33
2023-01-03T05:37:13.731Z,4.10
2023-01-03T05:42:18.685Z,6.60
2023-01-03T05:47:22.747Z,4.50
2023-01-03T05:52:26.391Z,4.45
2023-01-03T05:57:35.436Z,4.97
2023-01-03T06:02:39.492Z,4.03
2023-01-03T06:07:43.389Z,3.80
2023-01-03T06:12:48.558Z,4.20
2023-01-03T06:18:02.731Z,6.28
2023-01-03T06:23:06.499Z,4.43
2023-01-03T06:28:11.497Z,3.75
2023-01-03T06:33:15.342Z,5.40
2023-01-03T06:38:18.920Z,3.30
2023-01-03T06:43:24.125Z,3.30
2023-01-03T06:48:45.062Z,3.50
2023-01-03T06:53:50.463Z,3.72
2023-01-03T06:58:55.467Z,3.10
2023-01-03T07:04:00.135Z,3.65
2023-01-03T07:09:03.861Z,3.78
2023-01-03T07:14:11.931Z,3.25
2023-01-03T07:19:18.520Z,3.10
2023-01-03T07:24:22.265Z,5.03
2023-01-03T07:29:27.343Z,4.45
2023-01-03T07:34:31.256Z,3.42
2023-01-03T07:39:34.935Z,3.65
2023-01-03T07:44:39.980Z,3.28
2023-01-03T07:49:43.550Z,4.13
2023-01-03T07:54:48.234Z,3.13
2023-01-03T07:59:53.240Z,2.25
2023-01-03T08:04:56.941Z,3.13
2023-01-03T08:10:18.305Z,3.67
2023-01-03T08:15:23.387Z,3.80
2023-01-03T08:20:27.087Z,2.15
2023-01-03T08:25:30.673Z,4.68
2023-01-03T08:30:43.204Z,4.57
2023-01-03T08:35:54.414Z,3.25
2023-01-03T08:41:00.534Z,3.70
2023-01-03T08:46:11.514Z,3.83
2023-01-03T08:51:15.367Z,7.43
2023-01-03T08:56:20.783Z,8.75
2023-01-03T09:01:26.374Z,9.35
2023-01-03T09:06:30.164Z,10.07
2023-01-03T09:11:33.883Z,10.52
2023-01-03T09:16:40.749Z,8.20
2023-01-03T09:21:47.587Z,5.78
2023-01-03T09:26:54.695Z,7.10
2023-01-03T09:32:03.404Z,5.15
2023-01-03T09:37:07.286Z,7.43
2023-01-03T09:42:38.711Z,7.95
2023-01-03T09:47:45.020Z,6.85
2023-01-03T09:53:15.812Z,8.55
2023-01-03T09:58:37.066Z,5.88
2023-01-03T10:03:56.932Z,7.35
2023-01-03T10:09:22.360Z,6.20
2023-01-03T10:14:54.797Z,5.97
2023-01-03T10:20:34.141Z,6.25
2023-01-03T10:25:40.443Z,5.50
2023-01-03T10:31:18.074Z,5.90
2023-01-03T10:41:40.882Z,44.75
2023-01-03T10:46:53.682Z,60.63
2023-01-03T10:52:04.348Z,58.53
2023-01-03T10:57:08.128Z,56.78
2023-01-03T11:02:18.530Z,52.47
2023-01-03T11:07:25.809Z,53.22
2023-01-03T11:12:36.892Z,49.28
2023-01-03T11:17:54.961Z,47.25
2023-01-03T11:23:13.378Z,47.22
2023-01-03T11:29:29.788Z,39.90
2023-01-03T11:40:41.170Z,44.05
2023-01-03T11:46:16.676Z,39.00
2023-01-03T11:51:32.594Z,38.05
2023-01-03T11:56:42.437Z,35.35
2023-01-03T12:02:52.903Z,33.17
2023-01-03T12:08:06.303Z,35.08
2023-01-03T12:13:29.093Z,34.88
2023-01-03T12:18:47.613Z,31.90
2023-01-03T12:24:00.763Z,32.47
2023-01-03T12:29:18.202Z,30.23
2023-01-03T12:34:31.971Z,31.33
2023-01-03T12:39:48.398Z,36.08
2023-01-03T12:45:10.801Z,30.88
2023-01-03T12:50:21.462Z,28.90
2023-01-03T12:55:40.150Z,31.13
2023-01-03T13:00:59.384Z,30.95
2023-01-03T13:06:09.288Z,28.25
2023-01-03T13:11:22.710Z,29.88
2023-01-03T13:16:46.903Z,28.00
2023-01-03T13:22:05.828Z,29.38
2023-01-03T13:27:39.870Z,26.88
2023-01-03T13:32:55.679Z,26.50
2023-01-03T13:38:24.511Z,24.45
2023-01-03T13:43:39.692Z,26.10
2023-01-03T13:48:57.854Z,25.67
2023-01-03T13:59:23.588Z,24.55
2023-01-03T14:05:32.883Z,23.50
2023-01-03T14:11:13.347Z,23.10
2023-01-03T14:16:26.245Z,23.67
2023-01-03T14:21:44.303Z,21.67
2023-01-03T14:26:48.249Z,21.40
2023-01-03T14:31:56.259Z,22.15
2023-01-03T14:37:12.405Z,20.90
2023-01-03T14:42:17.601Z,22.50
2023-01-03T14:47:21.339Z,21.95
2023-01-03T14:52:33.787Z,22.08
2023-01-03T14:57:40.607Z,20.40
2023-01-03T15:02:45.214Z,21.98
2023-01-03T15:07:50.445Z,17.88
2023-01-03T15:13:04.168Z,16.58
2023-01-03T15:18:12.579Z,16.75
2023-01-03T15:23:39.666Z,16.98
2023-01-03T15:28:53.938Z,16.20
2023-01-03T15:34:04.250Z,15.80
2023-01-03T15:39:19.752Z,15.18
2023-01-03T15:44:27.448Z,13.05
2023-01-03T15:49:39.387Z,15.70
2023-01-03T15:54:46.209Z,13.73
2023-01-03T15:59:57.695Z,17.17
2023-01-03T16:05:01.563Z,12.10
2023-01-03T16:10:08.828Z,11.93
2023-01-03T16:15:21.251Z,13.30
2023-01-03T16:20:24.892Z,10.38
2023-01-03T16:25:30.529Z,12.73
2023-01-03T16:30:34.267Z,10.20
2023-01-03T16:35:37.864Z,11.23
2023-01-03T16:40:43.323Z,37.20
2023-01-03T16:45:47.571Z,31.08
2023-01-03T16:50:54.637Z,29.33
2023-01-03T16:55:59.801Z,23.33
2023-01-03T17:01:03.634Z,21.73
2023-01-03T17:06:08.337Z,21.50
2023-01-03T17:11:13.449Z,23.85
2023-01-03T17:16:22.811Z,19.75
2023-01-03T17:21:29.997Z,31.23
2023-01-03T17:26:36.999Z,24.10
2023-01-03T17:31:40.590Z,25.27
2023-01-03T17:36:44.331Z,25.70
2023-01-03T17:42:06.961Z,20.10
2023-01-03T17:47:41.850Z,13.68
2023-01-03T17:52:48.968Z,12.57
2023-01-03T17:57:58.621Z,15.73
2023-01-03T18:03:02.424Z,13.23
2023-01-03T18:08:06.750Z,8.65
2023-01-03T18:13:23.617Z,10.80
2023-01-03T18:18:29.341Z,12.47
2023-01-03T18:23:37.048Z,11.10
2023-01-03T18:28:42.161Z,9.82
2023-01-03T18:33:46.103Z,10.82
2023-01-03T18:38:49.976Z,11.90
2023-01-03T18:43:54.952Z,11.23
2023-01-03T18:48:58.770Z,10.05
2023-01-03T18:54:02.476Z,7.70
2023-01-03T18:59:20.980Z,6.53
2023-01-03T19:04:24.692Z,8.35
2023-01-03T19:09:29.507Z,7.75
2023-01-03T19:14:34.534Z,7.88
2023-01-03T19:19:38.178Z,7.75
2023-01-03T19:24:41.795Z,8.68
2023-01-03T19:29:47.057Z,7.78
2023-01-03T19:34:51.022Z,7.57
2023-01-03T19:39:54.736Z,6.60
2023-01-03T19:45:00.886Z,6.65
2023-01-03T19:50:19.226Z,7.38
2023-01-03T19:55:29.187Z,6.03
2023-01-03T20:00:37.051Z,6.10
2023-01-03T20:05:40.703Z,6.63
2023-01-03T20:10:45.086Z,8.02
2023-01-03T20:15:53.264Z,6.43
2023-01-03T20:21:00.887Z,5.95
2023-01-03T20:26:04.985Z,5.88
2023-01-03T20:31:13.933Z,6.43
2023-01-03T20:36:24.110Z,6.95
2023-01-03T20:41:36.615Z,6.82
2023-01-03T20:46:42.249Z,7.05
2023-01-03T20:51:46.118Z,5.47
2023-01-03T20:56:49.849Z,6.32
2023-01-03T21:01:55.001Z,5.10
2023-01-03T21:06:58.863Z,6.10
2023-01-03T21:12:02.756Z,5.47
2023-01-03T21:17:11.788Z,5.63
2023-01-03T21:22:21.539Z,5.80
2023-01-03T21:27:25.860Z,5.10
2023-01-03T21:32:31.094Z,3.58
2023-01-03T21:37:34.695Z,3.83
2023-01-03T21:43:01.498Z,5.38
2023-01-03T21:48:12.675Z,5.00
2023-01-03T21:53:19.015Z,4.25
2023-01-03T21:58:24.112Z,5.38
2023-01-03T22:03:46.883Z,5.05
2023-01-03T22:08:50.999Z,5.28
2023-01-03T22:13:59.093Z,4.95
2023-01-03T22:19:04.128Z,5.82
2023-01-03T22:24:09.174Z,4.85
2023-01-03T22:29:12.788Z,5.45
2023-01-03T22:34:17.835Z,5.88
2023-01-03T22:39:21.428Z,9.60
2023-01-03T22:44:25.292Z,7.25
2023-01-03T22:49:30.611Z,11.18
2023-01-03T22:54:35.347Z,11.25
2023-01-03T22:59:39.128Z,8.15
2023-01-03T23:04:44.212Z,7.88
2023-01-03T23:09:48.398Z,8.18
2023-01-03T23:14:52.028Z,6.85
2023-01-03T23:19:57.123Z,7.07
2023-01-03T23:25:00.729Z,7.03
2023-01-03T23:30:04.915Z,6.57
2023-01-03T23:35:11.973Z,6.65
2023-01-03T23:40:16.560Z,7.40
2023-01-03T23:45:20.671Z,7.28
2023-01-03T23:50:25.675Z,8.60
2023-01-03T23:55:29.437Z,6.43
